Time;durP1;ratioP1;P1;durP2;ratioP2;P2;SDS_P1;SDS_P2;PMS_P1;PMS_P2;Temp;Humidity;BMP_temperature;BMP_pressure;BME280_temperature;BME280_humidity;BME280_pressure;Samples;Min_cycle;Max_cycle;Signal;HPM_P1;HPM_P2
2023/07/08 00:00:58;;;;;;;8.50;7.60;;;;;;;19.35;50.69;101456.63;7397398;19;20017;-69
2023/07/08 00:03:27;;;;;;;8.13;6.70;;;;;;;19.32;51.01;101461.22;7396556;19;20022;-69
2023/07/08 00:05:58;;;;;;;7.25;6.55;;;;;;;19.29;51.04;101461.38;7397242;19;20019;-69
2023/07/08 00:08:26;;;;;;;10.18;7.72;;;;;;;19.24;50.87;101466.06;7397764;19;20086;-69
2023/07/08 00:10:54;;;;;;;8.50;7.43;;;;;;;19.16;51.50;101458.44;7397244;19;20373;-69
2023/07/08 00:13:25;;;;;;;8.50;6.85;;;;;;;19.05;51.51;101454.47;7394776;19;20094;-69
2023/07/08 00:15:54;;;;;;;10.27;7.25;;;;;;;19.00;51.57;101450.31;7395291;19;20025;-68
2023/07/08 00:18:22;;;;;;;8.57;7.13;;;;;;;18.93;51.84;101449.72;7396584;19;20549;-68
2023/07/08 00:20:52;;;;;;;7.50;6.80;;;;;;;18.91;51.94;101446.25;7396862;19;20377;-68
2023/07/08 00:23:21;;;;;;;7.15;6.32;;;;;;;18.89;52.05;101443.66;7395711;19;20503;-68
2023/07/08 00:25:51;;;;;;;8.50;7.20;;;;;;;18.88;52.24;101446.38;7396190;19;20489;-68
2023/07/08 00:28:21;;;;;;;10.95;7.40;;;;;;;18.85;52.16;101441.19;7396381;19;20373;-68
2023/07/08 00:30:59;;;;;;;8.35;7.35;;;;;;;18.80;52.26;101443.19;7394799;19;20042;-68
2023/07/08 00:33:27;;;;;;;7.88;7.18;;;;;;;18.73;52.09;101442.63;7394164;19;20020;-68
2023/07/08 00:35:56;;;;;;;7.55;6.72;;;;;;;18.67;52.73;101446.41;7394229;19;20496;-68
2023/07/08 00:38:26;;;;;;;8.25;7.45;;;;;;;18.65;52.47;101447.41;7396386;19;20024;-68
2023/07/08 00:41:01;;;;;;;7.43;6.72;;;;;;;18.63;52.88;101439.50;7395853;19;20015;-68
2023/07/08 00:43:38;;;;;;;9.05;7.93;;;;;;;18.61;53.24;101443.16;7394991;19;20054;-68
2023/07/08 00:46:31;;;;;;;7.15;6.45;;;;;;;18.61;52.83;101449.34;7396517;19;20014;-68
2023/07/08 00:49:16;;;;;;;7.93;6.65;;;;;;;18.59;52.78;101445.00;7396516;19;20078;-68
2023/07/08 00:51:45;;;;;;;7.78;6.95;;;;;;;18.58;52.75;101445.94;7395378;19;20014;-68
2023/07/08 00:54:14;;;;;;;7.07;6.38;;;;;;;18.54;52.83;101442.59;7394531;19;20013;-68
2023/07/08 00:56:45;;;;;;;7.75;6.70;;;;;;;18.52;53.38;101449.75;7395733;19;20011;-68
2023/07/08 00:59:26;;;;;;;8.10;6.65;;;;;;;18.48;53.58;101442.84;7395777;19;20032;-68
2023/07/08 01:02:00;;;;;;;9.45;6.55;;;;;;;18.43;53.17;101448.34;7396060;19;20087;-68
2023/07/08 01:04:36;;;;;;;7.60;6.72;;;;;;;18.40;53.75;101449.34;7394222;19;20015;-68
2023/07/08 01:07:07;;;;;;;6.82;6.22;;;;;;;18.35;53.60;101438.06;7395526;19;20023;-68
2023/07/08 01:09:39;;;;;;;7.22;6.63;;;;;;;18.32;53.62;101446.16;7395779;19;20042;-68
2023/07/08 01:12:31;;;;;;;13.73;6.53;;;;;;;18.26;53.81;101440.25;7394162;19;20361;-68
2023/07/08 01:15:02;;;;;;;7.40;6.38;;;;;;;18.20;53.95;101436.94;7392771;19;20090;-64
2023/07/08 01:17:34;;;;;;;9.30;6.55;;;;;;;18.18;54.10;101432.63;7394163;19;20066;-65
2023/07/08 01:20:05;;;;;;;7.43;6.72;;;;;;;18.16;54.03;101435.34;7393474;19;20530;-65
2023/07/08 01:22:37;;;;;;;7.95;7.15;;;;;;;18.14;54.13;101433.69;7393073;19;20506;-64
2023/07/08 01:25:06;;;;;;;7.45;6.75;;;;;;;18.13;54.12;101426.63;7392978;19;20351;-65
2023/07/08 01:27:38;;;;;;;8.27;6.38;;;;;;;18.10;54.38;101430.28;7393408;19;20010;-65
2023/07/08 01:30:09;;;;;;;6.85;6.15;;;;;;;18.05;54.41;101425.16;7393466;19;20035;-65
2023/07/08 01:32:41;;;;;;;7.30;6.60;;;;;;;18.01;54.65;101433.34;7392927;19;20015;-65
2023/07/08 01:35:14;;;;;;;7.25;6.30;;;;;;;17.96;54.89;101430.00;7392899;19;20340;-65
2023/07/08 01:37:50;;;;;;;7.07;6.47;;;;;;;17.89;55.17;101429.34;7393634;19;20021;-65
2023/07/08 01:40:30;;;;;;;8.57;6.57;;;;;;;17.84;55.52;101439.31;7393027;19;20022;-65
2023/07/08 01:43:00;;;;;;;9.68;6.95;;;;;;;17.77;55.83;101421.91;7395837;19;20010;-65
2023/07/08 01:45:32;;;;;;;9.65;7.35;;;;;;;17.71;56.19;101423.03;7402576;19;20014;-64
2023/07/08 01:48:05;;;;;;;8.70;7.88;;;;;;;17.65;56.12;101420.63;7399964;19;20032;-64
2023/07/08 01:50:37;;;;;;;10.65;8.60;;;;;;;17.58;56.34;101420.00;7401341;19;20111;-64
2023/07/08 01:53:13;;;;;;;11.45;9.45;;;;;;;17.50;56.96;101415.03;7400651;19;20015;-66
2023/07/08 01:55:41;;;;;;;11.15;10.15;;;;;;;17.41;56.99;101413.59;7427273;19;20015;-65
2023/07/08 01:58:10;;;;;;;11.05;9.95;;;;;;;17.35;56.93;101420.91;7425404;19;20022;-64
2023/07/08 02:00:38;;;;;;;11.25;10.10;;;;;;;17.29;57.14;101421.16;7426774;19;20031;-65
2023/07/08 02:03:06;;;;;;;13.15;10.38;;;;;;;17.25;57.28;101417.78;7429819;19;20014;-65
2023/07/08 02:05:35;;;;;;;11.52;10.30;;;;;;;17.24;57.64;101421.34;7410072;19;20533;-64
2023/07/08 02:08:03;;;;;;;11.73;10.63;;;;;;;17.18;57.73;101416.28;7401732;19;20078;-64
2023/07/08 02:10:34;;;;;;;10.77;9.75;;;;;;;17.15;57.82;101416.38;7400777;19;20102;-65
2023/07/08 02:13:03;;;;;;;10.45;9.20;;;;;;;17.12;57.85;101414.72;7398186;19;20074;-66
2023/07/08 02:15:31;;;;;;;9.60;8.68;;;;;;;17.06;58.02;101417.59;7398157;19;20535;-65
2023/07/08 02:18:00;;;;;;;8.98;8.10;;;;;;;16.98;58.00;101415.25;7398339;19;20082;-64
2023/07/08 02:20:28;;;;;;;12.27;8.27;;;;;;;16.90;58.05;101410.22;7398142;19;20513;-64
2023/07/08 02:22:57;;;;;;;9.20;8.40;;;;;;;16.87;58.55;101414.75;7398099;19;20022;-66
2023/07/08 02:25:26;;;;;;;9.50;8.55;;;;;;;16.83;58.72;101421.09;7398807;19;20496;-65
2023/07/08 02:27:58;;;;;;;10.15;8.60;;;;;;;16.78;58.63;101419.50;7398807;19;20015;-65
2023/07/08 02:30:27;;;;;;;11.27;8.00;;;;;;;16.75;58.95;101424.88;7398349;19;20014;-65
2023/07/08 02:32:59;;;;;;;8.93;8.07;;;;;;;16.72;58.72;101414.41;7397712;19;20492;-66
2023/07/08 02:35:28;;;;;;;8.88;8.07;;;;;;;16.69;59.19;101419.81;7398308;19;20010;-65
2023/07/08 02:37:58;;;;;;;8.98;8.07;;;;;;;16.63;58.98;101424.47;7397612;19;20015;-65
2023/07/08 02:40:28;;;;;;;9.10;8.30;;;;;;;16.48;59.31;101413.53;7400118;19;20017;-65
2023/07/08 02:42:59;;;;;;;9.25;8.35;;;;;;;16.47;59.64;101425.03;7399864;19;20020;-62
2023/07/08 02:45:27;;;;;;;9.48;8.57;;;;;;;16.38;59.90;101426.22;7397996;19;20010;-64
2023/07/08 02:47:55;;;;;;;8.82;7.93;;;;;;;16.32;59.96;101421.13;7399582;19;20503;-64
2023/07/08 02:50:24;;;;;;;9.82;7.70;;;;;;;16.29;60.14;101422.13;7397388;19;20033;-64
2023/07/08 02:52:53;;;;;;;9.13;8.32;;;;;;;16.27;60.25;101423.09;7398565;19;20018;-64
2023/07/08 02:55:21;;;;;;;9.35;8.32;;;;;;;16.25;60.32;101422.25;7397611;19;20041;-63
2023/07/08 02:57:50;;;;;;;8.60;7.70;;;;;;;16.23;60.16;101416.19;7399349;19;20378;-63
2023/07/08 03:00:21;;;;;;;8.98;8.18;;;;;;;16.19;60.42;101417.19;7399369;19;20021;-65
2023/07/08 03:02:49;;;;;;;9.68;7.55;;;;;;;16.11;60.36;101413.03;7399814;19;20033;-64
2023/07/08 03:05:18;;;;;;;8.43;7.63;;;;;;;16.07;60.39;101418.47;7397113;19;20014;-62
2023/07/08 03:07:47;;;;;;;8.60;7.80;;;;;;;16.02;60.66;101412.47;7396760;19;20022;-63
2023/07/08 03:10:15;;;;;;;9.90;8.23;;;;;;;16.01;60.55;101419.56;7399090;19;20177;-64
2023/07/08 03:12:44;;;;;;;8.70;7.90;;;;;;;16.00;60.77;101423.13;7396186;19;20011;-63
2023/07/08 03:15:12;;;;;;;8.77;7.97;;;;;;;16.00;60.79;101415.19;7396208;19;20010;-66
2023/07/08 03:17:43;;;;;;;8.32;7.22;;;;;;;16.00;60.76;101409.88;7398615;19;20549;-65
2023/07/08 03:20:13;;;;;;;9.00;8.15;;;;;;;16.01;60.87;101413.38;7396936;19;20027;-64
2023/07/08 03:22:42;;;;;;;9.27;7.53;;;;;;;16.01;60.75;101411.63;7396311;19;20021;-64
2023/07/08 03:25:11;;;;;;;10.05;7.45;;;;;;;16.01;60.91;101403.69;7396404;19;20086;-64
2023/07/08 03:27:40;;;;;;;7.82;7.00;;;;;;;16.03;60.80;101409.78;7398266;19;20501;-64
2023/07/08 03:30:10;;;;;;;8.43;7.55;;;;;;;16.03;60.88;101411.56;7396306;19;20078;-64
2023/07/08 03:32:39;;;;;;;7.60;6.75;;;;;;;16.04;60.81;101410.66;7395842;19;20079;-64
2023/07/08 03:35:11;;;;;;;8.45;7.53;;;;;;;16.04;60.73;101410.66;7395836;19;20022;-64
2023/07/08 03:37:39;;;;;;;8.98;8.07;;;;;;;16.06;60.93;101412.34;7396931;19;20018;-64
2023/07/08 03:40:12;;;;;;;7.93;7.22;;;;;;;16.07;60.79;101414.03;7396160;19;20097;-64
2023/07/08 03:42:40;;;;;;;8.35;7.30;;;;;;;16.09;60.75;101419.31;7398626;19;20020;-64
2023/07/08 03:45:10;;;;;;;9.57;7.30;;;;;;;16.09;60.84;101417.50;7398440;19;20022;-64
2023/07/08 03:47:38;;;;;;;8.35;6.95;;;;;;;16.10;60.97;101407.81;7406369;19;20027;-64
2023/07/08 03:50:20;;;;;;;9.77;7.70;;;;;;;16.10;60.93;101413.94;7404333;19;20385;-64
2023/07/08 03:52:49;;;;;;;8.13;7.32;;;;;;;16.12;60.97;101414.78;7399551;19;20022;-63
2023/07/08 03:55:19;;;;;;;7.70;7.00;;;;;;;16.16;60.99;101417.31;7395789;19;20023;-63
2023/07/08 03:57:47;;;;;;;7.55;6.85;;;;;;;16.17;60.79;101419.88;7395752;19;20086;-65
2023/07/08 04:00:16;;;;;;;9.13;7.10;;;;;;;16.19;60.68;101426.00;7398110;19;20019;-63
2023/07/08 04:02:46;;;;;;;10.38;7.30;;;;;;;16.20;60.91;101425.09;7395480;19;20082;-63
2023/07/08 04:05:20;;;;;;;7.60;6.90;;;;;;;16.24;60.84;101415.28;7394351;19;20423;-63
2023/07/08 04:07:48;;;;;;;8.60;7.57;;;;;;;16.23;60.79;101419.69;7397203;19;20027;-63
2023/07/08 04:10:19;;;;;;;7.30;6.63;;;;;;;16.26;60.92;101419.59;7396280;19;20022;-64
2023/07/08 04:12:47;;;;;;;7.82;7.05;;;;;;;16.28;60.59;101408.94;7394900;19;20011;-63
2023/07/08 04:15:16;;;;;;;8.55;7.85;;;;;;;16.32;60.68;101420.28;7394720;19;20010;-63
2023/07/08 04:17:46;;;;;;;8.93;7.80;;;;;;;16.35;60.89;101413.09;7395441;19;20081;-63
2023/07/08 04:20:20;;;;;;;8.52;7.70;;;;;;;16.33;60.66;101407.00;7395304;19;20031;-64
2023/07/08 04:22:50;;;;;;;8.32;7.60;;;;;;;16.39;60.79;101413.84;7395153;19;20021;-63
2023/07/08 04:25:18;;;;;;;8.20;6.93;;;;;;;16.46;60.57;101423.31;7394736;19;20415;-64
2023/07/08 04:27:47;;;;;;;8.13;7.25;;;;;;;16.51;60.45;101417.84;7395164;19;20022;-64
2023/07/08 04:30:23;;;;;;;24.13;18.40;;;;;;;16.55;60.68;101422.09;7396685;19;20014;-65
2023/07/08 04:32:53;;;;;;;17.60;14.50;;;;;;;16.58;60.54;101419.34;7394721;19;20015;-67
2023/07/08 04:35:24;;;;;;;32.38;23.00;;;;;;;16.63;60.74;101424.47;7396174;19;20021;-66
2023/07/08 04:37:54;;;;;;;16.98;13.55;;;;;;;16.66;60.39;101419.09;7394326;19;20010;-64
2023/07/08 04:40:23;;;;;;;13.23;10.82;;;;;;;16.71;60.52;101417.97;7394667;19;20018;-65
2023/07/08 04:42:52;;;;;;;13.43;11.15;;;;;;;16.76;60.37;101426.63;7394221;19;20087;-65
2023/07/08 04:45:21;;;;;;;9.88;8.73;;;;;;;16.81;60.16;101421.16;7394035;19;20489;-64
2023/07/08 04:47:52;;;;;;;8.02;7.25;;;;;;;16.88;59.71;101424.44;7394329;19;20039;-65
2023/07/08 04:50:20;;;;;;;8.60;7.80;;;;;;;16.92;59.71;101416.34;7393613;19;20019;-65
2023/07/08 04:52:52;;;;;;;7.45;6.75;;;;;;;16.98;59.64;101415.25;7393533;19;20434;-64
2023/07/08 04:55:21;;;;;;;8.95;7.90;;;;;;;17.01;59.63;101414.25;7396311;19;20010;-65
2023/07/08 04:57:49;;;;;;;8.70;7.90;;;;;;;17.06;59.27;101413.19;7393544;19;20035;-64
2023/07/08 05:00:20;;;;;;;10.45;9.20;;;;;;;17.12;59.55;101414.72;7394069;19;20082;-64
2023/07/08 05:02:48;;;;;;;9.00;7.47;;;;;;;17.16;59.44;101407.50;7393689;19;20424;-64
2023/07/08 05:05:17;;;;;;;9.43;8.52;;;;;;;17.24;59.12;101413.41;7395091;19;20031;-63
2023/07/08 05:07:46;;;;;;;10.13;8.30;;;;;;;17.29;59.27;101414.06;7393206;19;20482;-64
2023/07/08 05:10:17;;;;;;;9.05;8.20;;;;;;;17.34;59.13;101419.19;7393774;19;20019;-63
2023/07/08 05:12:45;;;;;;;14.07;12.20;;;;;;;17.37;59.15;101413.78;7392970;19;20117;-64
2023/07/08 05:15:14;;;;;;;11.48;9.73;;;;;;;17.46;59.05;101426.66;7393212;19;20031;-65
2023/07/08 05:17:43;;;;;;;13.40;10.52;;;;;;;17.53;58.81;101416.69;7391417;19;20082;-65
2023/07/08 05:20:15;;;;;;;9.30;8.48;;;;;;;17.56;58.58;101416.56;7393219;19;20035;-65
2023/07/08 05:22:43;;;;;;;11.98;10.18;;;;;;;17.58;58.67;101410.25;7392876;19;20520;-64
2023/07/08 05:25:13;;;;;;;9.35;8.35;;;;;;;17.68;58.68;101423.13;7392581;19;20486;-64
2023/07/08 05:27:44;;;;;;;9.65;8.18;;;;;;;17.75;58.56;101424.63;7393164;19;20026;-64
2023/07/08 05:30:17;;;;;;;10.80;9.70;;;;;;;17.81;58.54;101424.38;7393621;19;20078;-64
2023/07/08 05:32:46;;;;;;;11.63;10.43;;;;;;;17.88;58.15;101423.19;7393147;19;20546;-64
2023/07/08 05:35:14;;;;;;;14.73;13.32;;;;;;;17.95;57.99;101423.84;7392759;19;20031;-63
2023/07/08 05:37:46;;;;;;;16.88;14.18;;;;;;;18.02;57.22;101421.78;7392675;19;20031;-64
2023/07/08 05:40:15;;;;;;;16.48;14.95;;;;;;;18.10;56.95;101429.41;7392856;19;20018;-64
2023/07/08 05:42:46;;;;;;;18.08;16.38;;;;;;;18.16;56.78;101427.38;7392649;19;20035;-65
2023/07/08 05:45:15;;;;;;;18.52;16.77;;;;;;;18.22;56.56;101432.44;7391880;19;20023;-64
2023/07/08 05:47:43;;;;;;;15.38;14.00;;;;;;;18.30;56.63;101432.09;7391784;19;20074;-64
2023/07/08 05:50:12;;;;;;;16.55;14.85;;;;;;;18.36;56.27;101434.50;7391759;19;20015;-65
2023/07/08 05:52:40;;;;;;;16.15;14.73;;;;;;;18.43;56.56;101434.22;7391742;19;20423;-64
2023/07/08 05:55:10;;;;;;;23.25;14.98;;;;;;;18.51;56.37;101442.69;7390771;19;20094;-64
2023/07/08 05:57:38;;;;;;;16.42;14.82;;;;;;;18.58;56.12;101438.84;7392057;19;20085;-64
2023/07/08 06:00:11;;;;;;;15.77;14.45;;;;;;;18.65;56.32;101440.31;7393458;19;20553;-64
2023/07/08 06:02:39;;;;;;;15.48;14.02;;;;;;;18.71;56.31;101440.00;7391753;19;20035;-64
2023/07/08 06:05:09;;;;;;;17.90;14.70;;;;;;;18.79;56.05;101438.81;7391510;19;20019;-64
2023/07/08 06:07:37;;;;;;;15.32;13.88;;;;;;;18.85;56.46;101441.19;7391816;19;20074;-64
2023/07/08 06:10:07;;;;;;;12.00;10.90;;;;;;;18.92;56.09;101437.38;7394001;19;20038;-65
2023/07/08 06:12:35;;;;;;;16.73;11.13;;;;;;;19.01;55.76;101438.75;7390994;19;20464;-64
2023/07/08 06:15:04;;;;;;;12.77;11.48;;;;;;;19.10;55.83;101440.97;7390750;19;20078;-65
2023/07/08 06:17:35;;;;;;;11.98;10.85;;;;;;;19.18;55.71;101441.47;7393934;19;20031;-64
2023/07/08 06:20:04;;;;;;;12.50;11.25;;;;;;;19.28;55.61;101433.06;7393672;19;20089;-64
2023/07/08 06:22:32;;;;;;;12.85;10.73;;;;;;;19.35;55.75;101430.03;7391281;19;20396;-64
2023/07/08 06:25:01;;;;;;;12.13;10.90;;;;;;;19.44;55.74;101435.84;7391365;19;20031;-64
2023/07/08 06:27:36;;;;;;;11.05;10.05;;;;;;;19.53;56.05;101436.25;7393419;19;20034;-64
2023/07/08 06:30:05;;;;;;;10.25;9.25;;;;;;;19.64;55.71;101434.88;7394029;19;20023;-64
2023/07/08 06:32:36;;;;;;;10.70;9.60;;;;;;;19.72;55.99;101435.34;7397810;19;20023;-64
2023/07/08 06:35:04;;;;;;;16.65;9.70;;;;;;;19.81;56.45;101432.22;7398012;19;20066;-66
2023/07/08 06:37:33;;;;;;;11.02;9.93;;;;;;;19.89;56.22;101423.91;7397488;19;20019;-64
2023/07/08 06:40:03;;;;;;;10.95;9.80;;;;;;;19.99;56.19;101426.97;7400500;19;20099;-64
2023/07/08 06:42:32;;;;;;;11.98;10.65;;;;;;;20.08;56.36;101428.28;7398200;19;20010;-64
2023/07/08 06:45:00;;;;;;;11.13;9.93;;;;;;;20.17;56.28;101430.50;7412889;19;20010;-64
2023/07/08 06:47:29;;;;;;;20.65;16.20;;;;;;;20.24;56.63;101431.03;7397654;19;20503;-64
2023/07/08 06:50:00;;;;;;;24.70;19.50;;;;;;;20.34;56.39;101424.28;7412877;19;20019;-65
2023/07/08 06:52:33;;;;;;;22.60;16.17;;;;;;;20.44;56.21;101427.34;7415673;19;20018;-65
2023/07/08 06:55:02;;;;;;;15.55;13.60;;;;;;;20.47;56.57;101409.41;7414031;19;20015;-65
2023/07/08 06:57:31;;;;;;;13.35;12.05;;;;;;;20.64;55.83;101418.28;7399277;19;20018;-65
2023/07/08 06:59:59;;;;;;;11.57;10.48;;;;;;;20.77;55.72;101423.84;7396719;19;20023;-65
2023/07/08 07:02:28;;;;;;;11.85;10.65;;;;;;;20.86;55.52;101426.00;7396171;19;20039;-65
2023/07/08 07:04:56;;;;;;;14.63;11.57;;;;;;;20.98;55.09;101424.50;7396302;19;20019;-66
2023/07/08 07:07:27;;;;;;;11.55;9.63;;;;;;;21.07;54.92;101421.31;7399166;19;20018;-65
2023/07/08 07:09:56;;;;;;;10.35;9.25;;;;;;;21.18;54.62;101420.72;7397083;19;20070;-65
2023/07/08 07:12:27;;;;;;;10.88;9.85;;;;;;;21.26;54.64;101413.13;7396151;19;20019;-65
2023/07/08 07:15:02;;;;;;;11.00;9.90;;;;;;;21.37;54.17;101409.00;7396143;19;20007;-66
2023/07/08 07:17:30;;;;;;;10.50;9.45;;;;;;;21.48;54.07;101406.56;7396526;19;20018;-66
2023/07/08 07:19:59;;;;;;;10.38;9.10;;;;;;;21.57;54.23;101413.22;7399759;19;20022;-65
2023/07/08 07:22:30;;;;;;;10.35;9.35;;;;;;;21.69;53.88;101409.00;7395992;19;20015;-66
2023/07/08 07:24:59;;;;;;;10.55;9.55;;;;;;;21.82;53.90;101409.16;7395948;19;20025;-66
2023/07/08 07:27:27;;;;;;;11.38;10.30;;;;;;;21.91;53.33;101409.47;7396516;19;20022;-65
2023/07/08 07:29:56;;;;;;;11.18;9.77;;;;;;;22.00;52.90;101416.06;7396581;19;20490;-64
2023/07/08 07:32:26;;;;;;;10.65;9.48;;;;;;;22.11;52.33;101416.28;7396392;19;20079;-64
2023/07/08 07:34:55;;;;;;;10.32;9.43;;;;;;;22.24;52.25;101415.53;7395576;19;20343;-64
2023/07/08 07:37:24;;;;;;;10.40;9.40;;;;;;;22.35;51.66;101410.41;7395876;19;20011;-65
2023/07/08 07:39:55;;;;;;;9.23;8.40;;;;;;;22.45;51.79;101410.75;7396095;19;20018;-66
2023/07/08 07:42:24;;;;;;;9.82;9.02;;;;;;;22.57;51.16;101411.78;7397163;19;20494;-65
2023/07/08 07:44:52;;;;;;;9.50;8.60;;;;;;;22.68;50.72;101400.44;7395096;19;20482;-65
2023/07/08 07:47:21;;;;;;;11.15;9.95;;;;;;;22.78;50.51;101407.78;7395452;19;20027;-65
2023/07/08 07:49:49;;;;;;;10.48;9.55;;;;;;;22.90;50.59;101413.31;7395804;19;20022;-65
2023/07/08 07:52:23;;;;;;;10.15;9.13;;;;;;;22.99;50.26;101409.19;7395011;19;20514;-66
2023/07/08 07:54:54;;;;;;;10.80;9.32;;;;;;;23.10;50.56;101409.34;7395008;19;20018;-65
2023/07/08 07:57:23;;;;;;;13.45;11.10;;;;;;;23.20;50.51;101405.19;7395908;19;20019;-66
2023/07/08 07:59:52;;;;;;;10.30;9.40;;;;;;;23.30;50.35;101399.22;7395155;19;20027;-66
2023/07/08 08:02:21;;;;;;;18.20;14.15;;;;;;;23.41;49.55;101407.41;7395723;19;20031;-65
2023/07/08 08:04:49;;;;;;;11.98;9.05;;;;;;;23.55;49.71;101407.34;7395275;19;20401;-65
2023/07/08 08:07:18;;;;;;;8.90;8.10;;;;;;;23.68;49.06;101415.44;7397654;19;20035;-65
2023/07/08 08:09:46;;;;;;;14.50;11.27;;;;;;;23.79;48.80;101409.34;7395265;19;20027;-66
2023/07/08 08:12:17;;;;;;;10.23;9.07;;;;;;;23.90;49.04;101398.75;7395444;19;20026;-65
2023/07/08 08:14:46;;;;;;;21.98;15.48;;;;;;;24.02;48.89;101404.28;7395422;19;20082;-65
2023/07/08 08:17:15;;;;;;;13.95;12.13;;;;;;;24.13;47.80;101404.41;7396227;19;20070;-64
2023/07/08 08:19:43;;;;;;;12.65;10.38;;;;;;;24.23;47.54;101407.31;7395666;19;20018;-65
2023/07/08 08:22:12;;;;;;;12.60;9.88;;;;;;;24.35;47.27;101409.16;7395993;19;20031;-64
2023/07/08 08:24:40;;;;;;;13.73;9.40;;;;;;;24.47;46.76;101406.59;7394490;19;20026;-64
2023/07/08 08:27:09;;;;;;;9.02;8.13;;;;;;;24.56;46.52;101401.41;7394899;19;20078;-63
2023/07/08 08:29:40;;;;;;;7.65;6.93;;;;;;;24.65;46.25;101397.25;7394715;19;20028;-64
2023/07/08 08:32:09;;;;;;;7.45;6.60;;;;;;;24.77;46.38;101403.56;7395955;19;20022;-66
2023/07/08 08:34:38;;;;;;;8.68;7.82;;;;;;;24.87;45.75;101403.75;7395759;19;20395;-66
2023/07/08 08:37:07;;;;;;;8.07;6.15;;;;;;;24.97;45.00;101403.94;7396256;19;20036;-65
2023/07/08 08:39:35;;;;;;;5.68;4.90;;;;;;;25.07;43.96;101410.34;7400605;19;20022;-65
2023/07/08 08:42:04;;;;;;;6.40;4.78;;;;;;;25.19;42.85;101403.25;7401599;19;20017;-66
2023/07/08 08:44:36;;;;;;;6.63;4.30;;;;;;;25.29;42.13;101393.53;7408485;19;20377;-65
2023/07/08 08:47:16;;;;;;;4.82;4.28;;;;;;;25.42;40.88;101404.25;7402663;19;20010;-65
2023/07/08 08:49:49;;;;;;;6.38;4.60;;;;;;;25.53;40.98;101403.47;7400318;19;20011;-65
2023/07/08 08:52:18;;;;;;;5.10;4.10;;;;;;;25.63;40.47;101395.56;7398165;19;20022;-65
2023/07/08 08:54:46;;;;;;;3.72;3.25;;;;;;;25.73;40.05;101398.41;7393972;19;20423;-65
2023/07/08 08:57:31;;;;;;;4.55;3.72;;;;;;;25.82;38.95;101395.88;7393873;19;20549;-65
2023/07/08 09:00:03;;;;;;;5.75;3.42;;;;;;;25.91;39.04;101394.31;7394669;19;20031;-64
2023/07/08 09:02:40;;;;;;;2.95;2.45;;;;;;;26.00;36.67;101392.75;7395483;19;20021;-65
2023/07/08 09:05:11;;;;;;;5.70;3.70;;;;;;;26.14;35.93;101402.47;7393574;19;20074;-65
2023/07/08 09:07:59;;;;;;;3.90;3.15;;;;;;;26.25;34.98;101401.63;7393639;19;20010;-65
2023/07/08 09:10:41;;;;;;;4.85;3.33;;;;;;;26.36;33.21;101401.66;7393903;19;20018;-65
2023/07/08 09:13:13;;;;;;;3.90;2.55;;;;;;;26.46;33.55;101404.47;7393594;19;20035;-66
2023/07/08 09:15:42;;;;;;;5.27;3.47;;;;;;;26.55;32.67;101398.38;7392742;19;20407;-65
2023/07/08 09:18:22;;;;;;;4.00;3.30;;;;;;;26.62;32.10;101393.34;7392860;19;20568;-65
2023/07/08 09:20:51;;;;;;;4.45;2.90;;;;;;;26.69;32.13;101393.72;7395878;19;20022;-65
2023/07/08 09:23:24;;;;;;;3.75;2.88;;;;;;;26.76;30.71;101384.22;7392663;19;20043;-66
2023/07/08 09:26:00;;;;;;;3.28;2.30;;;;;;;26.83;31.79;101391.66;7392662;19;20018;-65
2023/07/08 09:28:39;;;;;;;4.78;2.80;;;;;;;26.91;30.77;101382.13;7392687;19;20074;-65
2023/07/08 09:31:10;;;;;;;3.78;2.53;;;;;;;26.99;31.55;101385.03;7393217;19;20010;-65
2023/07/08 09:33:42;;;;;;;5.57;2.80;;;;;;;27.04;31.00;101374.72;7392541;19;20581;-65
2023/07/08 09:36:19;;;;;;;4.93;2.35;;;;;;;27.12;30.39;101379.47;7393169;19;20090;-65
2023/07/08 09:38:51;;;;;;;2.88;2.50;;;;;;;27.19;30.08;101383.38;7392989;19;20022;-65
2023/07/08 09:41:34;;;;;;;3.42;2.28;;;;;;;27.28;29.65;101379.94;7392062;19;20490;-66
2023/07/08 09:44:29;;;;;;;2.88;2.00;;;;;;;27.37;29.62;101382.84;7391707;19;20490;-65
2023/07/08 09:46:59;;;;;;;4.32;3.40;;;;;;;27.41;30.17;101378.94;7390689;19;20494;-65
2023/07/08 09:49:36;;;;;;;5.32;3.58;;;;;;;27.45;30.46;101383.97;7391264;19;20015;-65
2023/07/08 09:52:06;;;;;;;3.35;2.50;;;;;;;27.51;29.92;101384.44;7392444;19;20018;-65
2023/07/08 09:54:36;;;;;;;4.30;2.88;;;;;;;27.58;29.53;101385.63;7391952;19;20039;-65
2023/07/08 09:57:11;;;;;;;4.38;2.45;;;;;;;27.64;28.77;101374.34;7393057;19;20023;-67
2023/07/08 09:59:45;;;;;;;3.65;2.88;;;;;;;27.70;28.98;101381.91;7394580;19;20019;-65
2023/07/08 10:02:40;;;;;;;3.63;2.50;;;;;;;27.76;28.53;101377.81;7395556;19;20030;-65
2023/07/08 10:05:16;;;;;;;3.10;2.47;;;;;;;27.83;29.26;101375.44;7397303;19;20086;-65
2023/07/08 10:07:46;;;;;;;5.35;2.65;;;;;;;27.90;29.26;101373.94;7401803;19;20025;-65
2023/07/08 10:10:18;;;;;;;3.22;2.22;;;;;;;27.96;28.33;101382.34;7401884;19;20010;-65
2023/07/08 10:12:57;;;;;;;5.55;2.75;;;;;;;28.04;27.32;101380.88;7397550;19;20039;-65
2023/07/08 10:15:38;;;;;;;4.63;2.30;;;;;;;28.06;27.83;101379.75;7398167;19;20014;-66
2023/07/08 10:18:07;;;;;;;3.22;2.50;;;;;;;28.10;28.53;101381.19;7398921;19;20026;-66
2023/07/08 10:20:52;;;;;;;2.75;2.30;;;;;;;28.18;28.22;101377.84;7398937;19;20040;-66
2023/07/08 10:23:33;;;;;;;3.17;2.88;;;;;;;28.24;27.57;101377.28;7398635;19;20039;-66
2023/07/08 10:26:11;;;;;;;2.92;2.60;;;;;;;28.30;27.75;101375.91;7400375;19;20028;-66
2023/07/08 10:28:48;;;;;;;5.05;2.80;;;;;;;28.35;27.82;101368.28;7398902;19;20368;-65
2023/07/08 10:31:28;;;;;;;3.42;2.80;;;;;;;28.41;27.64;101378.53;7397706;19;20010;-65
2023/07/08 10:34:20;;;;;;;4.22;2.58;;;;;;;28.48;27.81;101378.00;7398109;19;20011;-66
2023/07/08 10:36:57;;;;;;;4.03;2.30;;;;;;;28.55;27.82;101371.03;7397898;19;20042;-64
2023/07/08 10:39:53;;;;;;;3.05;2.58;;;;;;;28.64;27.93;101374.78;7397166;19;20031;-64
2023/07/08 10:42:33;;;;;;;3.35;2.42;;;;;;;28.69;27.27;101368.03;7397656;19;20018;-64
2023/07/08 10:45:12;;;;;;;2.92;2.33;;;;;;;28.79;27.69;101364.47;7397432;19;20084;-65
2023/07/08 10:48:05;;;;;;;4.07;2.88;;;;;;;28.86;27.33;101365.66;7399369;19;20026;-66
2023/07/08 10:50:54;;;;;;;3.63;2.58;;;;;;;28.92;27.41;101365.09;7400237;19;20144;-65
2023/07/08 10:53:44;;;;;;;5.32;3.05;;;;;;;28.99;27.12;101368.97;7396937;19;20022;-65
2023/07/08 10:56:19;;;;;;;4.13;2.53;;;;;;;29.08;26.86;101370.81;7400137;19;20018;-65
2023/07/08 10:59:16;;;;;;;5.45;2.63;;;;;;;29.15;26.33;101364.84;7397395;19;20027;-64
2023/07/08 11:02:02;;;;;;;3.08;2.70;;;;;;;29.16;26.35;101356.59;7396861;19;20485;-66
2023/07/08 11:04:44;;;;;;;4.05;2.60;;;;;;;29.20;25.31;101359.88;7400048;19;20014;-65
2023/07/08 11:07:19;;;;;;;3.50;2.60;;;;;;;29.25;26.02;101363.00;7396327;19;20419;-64
2023/07/08 11:09:55;;;;;;;4.63;2.55;;;;;;;29.30;26.38;101358.06;7397201;19;20351;-65
2023/07/08 11:12:37;;;;;;;6.75;2.85;;;;;;;29.38;26.16;101355.53;7396785;19;20051;-63
2023/07/08 11:15:15;;;;;;;3.95;2.70;;;;;;;29.47;26.59;101353.81;7394070;19;20336;-64
2023/07/08 11:17:48;;;;;;;3.47;2.67;;;;;;;29.59;26.26;101349.09;7396316;19;20023;-64
2023/07/08 11:20:24;;;;;;;4.82;2.67;;;;;;;29.72;25.72;101348.81;7396216;19;20015;-64
2023/07/08 11:22:57;;;;;;;3.53;2.55;;;;;;;29.81;25.25;101345.25;7396420;19;20018;-67
2023/07/08 11:25:30;;;;;;;5.22;3.00;;;;;;;29.87;25.23;101344.63;7398048;19;20035;-65
2023/07/08 11:28:04;;;;;;;3.40;2.97;;;;;;;29.94;25.25;101338.69;7396078;19;20027;-64
2023/07/08 11:30:35;;;;;;;3.33;2.33;;;;;;;30.01;25.14;101334.41;7396595;19;20091;-65
2023/07/08 11:33:07;;;;;;;4.25;2.92;;;;;;;30.07;24.49;101339.22;7396454;19;20038;-66
2023/07/08 11:35:44;;;;;;;3.97;2.78;;;;;;;30.15;24.35;101335.78;7396413;19;20035;-66
2023/07/08 11:38:18;;;;;;;3.53;2.42;;;;;;;30.28;24.54;101327.31;7396213;19;20022;-65
2023/07/08 11:40:58;;;;;;;3.85;2.58;;;;;;;30.44;24.72;101326.69;7397382;19;20070;-65
2023/07/08 11:43:30;;;;;;;4.88;2.92;;;;;;;30.64;24.37;101328.31;7395993;19;20022;-65